Koumac Nlle-Caledonie, New Caledonia
Current Conditions -  °F | °C
As of 12:00 AM on Sunday 26 Oct 2014 (Local Time) from NWWW Reporting Station
Clear Clear  
Wind Chill: 63°   Ceiling: Unl
Heat Index: 63°   Visibility: 6mi
Dew Point: 54°   Wind: 2mph
Humidity: 72%   Direction: NA
Pressure: 30.06"   Gusts: NA
Location:  20.57°S, 164.28°E
Report Text: NWWW 251300Z AUTO VRB02KT 9999 NSC 17/12 Q1018
Loading
Personal Weather Stations






























Interactive Weather Map
Tropical Storm Tracking
New forecast layout! Learn more

10-Day Weather Forecast

Advertisements
Track Severe Weather on mobile